Time;durP1;ratioP1;P1;durP2;ratioP2;P2;SDS_P1;SDS_P2;PMS_P1;PMS_P2;Temp;Humidity;BMP_temperature;BMP_pressure;BME280_temperature;BME280_humidity;BME280_pressure;Samples;Min_cycle;Max_cycle;Signal;HPM_P1;HPM_P2
2022/11/06 00:00:34;;;;;;;4.22;2.15;;;;;;;7.89;87.62;100139.16;5056668;28;20094;-79
2022/11/06 00:03:00;;;;;;;6.97;2.30;;;;;;;7.87;87.76;100127.81;5074408;28;20460;-80
2022/11/06 00:08:11;;;;;;;8.65;2.55;;;;;;;7.93;87.13;100132.00;5074211;28;20051;-79
2022/11/06 00:10:36;;;;;;;5.90;1.80;;;;;;;7.88;87.35;100125.91;5056255;28;20021;-80
2022/11/06 00:13:02;;;;;;;5.45;2.10;;;;;;;7.85;87.53;100119.22;5073869;28;20060;-80
2022/11/06 00:15:27;;;;;;;5.28;2.38;;;;;;;7.80;87.80;100131.00;5074433;28;20104;-79
2022/11/06 00:17:53;;;;;;;9.57;2.40;;;;;;;7.79;87.84;100123.19;5074352;28;20461;-81
2022/11/06 00:20:18;;;;;;;5.30;2.25;;;;;;;7.77;88.17;100128.94;5073913;28;20251;-80
2022/11/06 00:22:43;;;;;;;6.70;2.03;;;;;;;7.80;87.75;100122.88;5073916;28;20079;-80
2022/11/06 00:25:09;;;;;;;12.60;2.40;;;;;;;7.77;87.82;100131.66;5073907;28;20035;-80
2022/11/06 00:27:36;;;;;;;5.45;1.90;;;;;;;7.84;87.61;100129.25;5073300;28;20025;-79
2022/11/06 00:30:02;;;;;;;4.25;1.85;;;;;;;7.78;87.74;100129.72;5073930;28;20093;-80
2022/11/06 00:32:28;;;;;;;6.20;2.03;;;;;;;7.76;87.80;100123.81;5073770;28;20024;-79
2022/11/06 00:34:53;;;;;;;6.60;2.20;;;;;;;7.76;88.08;100129.25;5073325;28;20032;-79
2022/11/06 00:37:18;;;;;;;4.53;1.77;;;;;;;7.69;88.11;100129.69;5073634;28;20025;-80
2022/11/06 00:39:44;;;;;;;4.97;2.10;;;;;;;7.67;88.24;100139.25;5073447;28;20495;-79
2022/11/06 00:42:09;;;;;;;4.95;1.73;;;;;;;7.68;88.34;100135.44;5073812;28;20521;-79
2022/11/06 00:44:34;;;;;;;7.83;2.60;;;;;;;7.71;88.26;100121.25;5055623;28;20587;-80
2022/11/06 00:47:00;;;;;;;4.23;1.77;;;;;;;7.68;88.32;100119.97;5055574;28;20031;-79
2022/11/06 00:49:27;;;;;;;4.55;2.10;;;;;;;7.68;88.31;100111.03;5038698;28;20293;-81
2022/11/06 00:51:52;;;;;;;7.30;2.47;;;;;;;7.66;88.12;100122.19;5072943;28;20071;-80
2022/11/06 00:54:18;;;;;;;4.05;1.60;;;;;;;7.68;88.22;100114.53;5073595;28;20025;-81
2022/11/06 00:56:43;;;;;;;6.78;2.28;;;;;;;7.75;87.74;100119.53;5073253;28;20029;-79
2022/11/06 00:59:11;;;;;;;4.60;1.90;;;;;;;7.76;87.54;100121.13;5073086;28;20025;-79
2022/11/06 01:01:41;;;;;;;4.95;1.98;;;;;;;7.72;87.88;100131.78;5055459;28;20086;-80
2022/11/06 01:04:16;;;;;;;7.07;1.80;;;;;;;7.75;87.40;100142.00;5073466;28;20487;-80
2022/11/06 01:06:44;;;;;;;4.97;1.50;;;;;;;7.74;87.68;100128.78;5072895;28;20052;-80
2022/11/06 01:09:12;;;;;;;5.95;2.15;;;;;;;7.77;87.35;100125.44;5073283;28;20024;-79
2022/11/06 01:11:42;;;;;;;6.45;1.60;;;;;;;7.74;87.53;100134.19;5073022;28;20028;-80
2022/11/06 01:14:10;;;;;;;7.47;1.90;;;;;;;7.84;87.05;100128.47;5055040;28;20508;-79
2022/11/06 01:16:35;;;;;;;4.13;1.40;;;;;;;7.79;87.17;100126.69;5072953;28;20024;-79
2022/11/06 01:19:01;;;;;;;7.20;2.27;;;;;;;7.78;87.23;100114.25;5073059;28;20028;-80
2022/11/06 01:21:32;;;;;;;3.53;1.33;;;;;;;7.78;87.54;100113.47;5054574;28;20086;-79
2022/11/06 01:24:01;;;;;;;4.88;1.38;;;;;;;7.75;87.28;100109.47;5073071;28;20082;-80
2022/11/06 01:26:27;;;;;;;4.35;1.70;;;;;;;7.74;87.25;100109.78;5038109;28;20033;-79
2022/11/06 01:28:53;;;;;;;;;;;;;;;7.71;87.50;100110.41;5073136;28;20056;-80
2022/11/06 01:31:22;;;;;;;3.53;1.55;;;;;;;7.87;86.64;100099.91;5073299;28;20000;-79
2022/11/06 01:33:47;;;;;;;10.25;2.28;;;;;;;7.85;86.51;100111.06;5072617;28;20024;-79
2022/11/06 01:36:15;;;;;;;10.43;2.55;;;;;;;7.71;87.28;100105.78;5072437;28;20032;-80
2022/11/06 01:38:45;;;;;;;11.43;3.13;;;;;;;7.77;87.11;100099.13;5071797;28;20035;-80
2022/11/06 01:41:23;;;;;;;3.92;1.48;;;;;;;7.82;86.42;100098.16;5072318;28;20028;-79
2022/11/06 01:43:54;;;;;;;2.72;1.20;;;;;;;7.93;86.17;100090.53;5054605;28;20094;-79
2022/11/06 01:46:23;;;;;;;4.95;1.52;;;;;;;7.79;86.76;100086.03;5072035;28;20040;-79
2022/11/06 01:49:11;;;;;;;4.10;1.73;;;;;;;7.81;86.51;100077.59;5054511;28;20474;-79
2022/11/06 01:51:39;;;;;;;;;;;;;;;7.72;86.86;100076.75;5072737;28;20033;-79
2022/11/06 01:54:07;;;;;;;5.88;2.10;;;;;;;7.76;86.55;100058.78;5072300;28;19913;-79
2022/11/06 01:56:32;;;;;;;4.38;1.75;;;;;;;7.72;86.85;100072.13;5072744;28;20093;-79
2022/11/06 01:58:58;;;;;;;3.38;1.33;;;;;;;7.68;87.08;100071.19;5072479;28;20483;-80
2022/11/06 02:01:23;;;;;;;4.82;1.20;;;;;;;7.76;86.60;100064.19;5072425;28;20032;-79
2022/11/06 02:03:58;;;;;;;4.77;1.40;;;;;;;7.70;86.78;100057.31;5072574;28;20048;-79
2022/11/06 02:06:24;;;;;;;4.15;1.38;;;;;;;7.69;86.71;100061.13;5072154;28;20374;-79
2022/11/06 02:08:50;;;;;;;;;;;;;;;7.63;87.40;100051.56;5072745;28;20028;-79
2022/11/06 02:11:15;;;;;;;3.60;1.23;;;;;;;7.74;86.74;100063.72;5072603;28;19908;-79
2022/11/06 02:13:58;;;;;;;4.60;1.47;;;;;;;7.67;87.09;100071.50;5054432;28;20024;-80
2022/11/06 02:16:51;;;;;;;5.00;1.63;;;;;;;7.65;87.08;100060.19;5072569;28;20024;-79
2022/11/06 02:19:41;;;;;;;3.53;1.30;;;;;;;7.62;87.36;100060.81;5072500;28;20036;-80
2022/11/06 02:22:38;;;;;;;2.97;1.15;;;;;;;7.54;87.65;100060.47;5072307;28;20473;-79
2022/11/06 02:25:14;;;;;;;4.72;1.70;;;;;;;7.61;87.44;100059.22;5072255;28;20027;-79
2022/11/06 02:27:46;;;;;;;5.10;1.30;;;;;;;7.60;87.51;100063.84;5072315;28;20081;-79
2022/11/06 02:30:14;;;;;;;2.38;0.98;;;;;;;7.57;87.54;100061.78;5071679;28;20027;-80
2022/11/06 02:32:59;;;;;;;6.28;1.30;;;;;;;7.65;87.12;100060.97;5072007;28;20150;-79
2022/11/06 02:35:24;;;;;;;6.70;1.35;;;;;;;7.62;87.29;100049.97;5051559;28;20024;-78
2022/11/06 02:37:56;;;;;;;3.50;1.37;;;;;;;7.55;87.60;100051.22;5054194;28;20036;-79
2022/11/06 02:40:28;;;;;;;6.43;2.17;;;;;;;7.60;87.28;100057.63;5072346;28;20021;-80
2022/11/06 02:42:57;;;;;;;8.27;1.33;;;;;;;7.52;87.56;100045.66;5072051;28;20509;-80
2022/11/06 02:45:25;;;;;;;3.90;1.67;;;;;;;7.57;87.09;100050.94;5071995;28;20032;-79
2022/11/06 02:47:54;;;;;;;3.97;1.13;;;;;;;7.54;87.14;100044.22;5072003;28;20028;-80
2022/11/06 02:50:29;;;;;;;4.90;1.70;;;;;;;7.49;87.82;100052.50;5073017;28;20024;-80
2022/11/06 02:53:00;;;;;;;6.70;1.48;;;;;;;7.43;87.81;100031.31;5072987;28;20032;-80
2022/11/06 02:55:42;;;;;;;3.55;1.27;;;;;;;7.39;87.92;100039.25;5075580;28;20020;-79
2022/11/06 02:58:12;;;;;;;4.75;1.23;;;;;;;7.42;87.53;100035.13;5057665;28;20024;-81
2022/11/06 03:00:42;;;;;;;3.65;1.20;;;;;;;7.37;87.89;100006.25;5075614;28;20587;-79
2022/11/06 03:03:16;;;;;;;3.33;1.25;;;;;;;7.43;87.61;100020.47;5075331;28;20024;-79
2022/11/06 03:05:50;;;;;;;6.85;2.10;;;;;;;7.44;87.49;100011.22;5075378;28;20062;-80
2022/11/06 03:08:43;;;;;;;3.05;1.38;;;;;;;7.39;87.57;100020.31;5056946;28;20216;-80
2022/11/06 03:11:24;;;;;;;1.73;0.82;;;;;;;7.48;87.17;100012.97;5055423;28;20032;-79
2022/11/06 03:14:18;;;;;;;4.90;1.65;;;;;;;7.44;87.22;100017.44;5055516;28;20029;-79
2022/11/06 03:16:55;;;;;;;4.28;0.90;;;;;;;7.37;87.72;100008.97;5055112;28;20025;-80
2022/11/06 03:19:47;;;;;;;4.60;1.40;;;;;;;7.37;87.68;100017.09;5055251;28;20055;-79
2022/11/06 03:22:27;;;;;;;3.97;1.00;;;;;;;7.37;87.50;100016.28;5055109;28;20047;-78
2022/11/06 03:25:15;;;;;;;2.33;0.90;;;;;;;7.37;87.49;100017.09;5055010;28;20029;-79
2022/11/06 03:28:03;;;;;;;4.55;1.20;;;;;;;7.39;87.62;100009.47;5036901;28;20031;-79
2022/11/06 03:30:33;;;;;;;4.57;1.10;;;;;;;7.37;87.64;100013.59;5054767;28;20488;-78
2022/11/06 03:33:13;;;;;;;6.63;1.38;;;;;;;7.36;87.60;100010.06;5054980;28;20029;-80
2022/11/06 03:35:53;;;;;;;5.00;1.45;;;;;;;7.31;87.88;100002.09;5055135;28;20028;-80
2022/11/06 03:38:36;;;;;;;5.22;1.35;;;;;;;7.34;87.78;100006.88;5036708;28;20060;-81
2022/11/06 03:41:10;;;;;;;2.90;1.20;;;;;;;7.37;87.71;100010.88;5054702;28;20445;-81
2022/11/06 03:43:39;;;;;;;3.88;1.48;;;;;;;7.44;87.24;100012.03;5054998;28;20028;-80
2022/11/06 03:46:10;;;;;;;3.83;1.20;;;;;;;7.39;87.51;100012.19;5054696;28;20545;-80
2022/11/06 03:48:41;;;;;;;5.90;1.50;;;;;;;7.33;87.81;100010.72;5053711;28;20071;-81
2022/11/06 03:51:16;;;;;;;6.00;1.40;;;;;;;7.37;87.49;100008.97;5054339;28;20029;-81
2022/11/06 03:53:53;;;;;;;4.03;1.60;;;;;;;7.37;87.71;100022.50;5036775;28;20439;-83
2022/11/06 03:56:26;;;;;;;5.50;1.45;;;;;;;7.34;88.00;100023.13;5054566;28;20024;-82
2022/11/06 03:58:54;;;;;;;3.28;1.10;;;;;;;7.30;88.19;100019.47;5054523;28;20036;-81
2022/11/06 04:01:32;;;;;;;5.28;1.02;;;;;;;7.37;87.97;100022.50;5053792;28;20029;-80
2022/11/06 04:04:03;;;;;;;3.13;1.15;;;;;;;7.33;88.05;100026.97;5054307;28;20521;-81
2022/11/06 04:06:44;;;;;;;3.08;1.38;;;;;;;7.35;88.00;100023.94;5039742;28;20052;-81
2022/11/06 04:14:48;;;;;;;7.85;1.40;;;;;;;7.35;88.26;100008.47;5074416;28;20451;-84
2022/11/06 04:17:15;;;;;;;5.25;1.25;;;;;;;7.32;88.25;100013.75;5056277;28;20043;-81
2022/11/06 04:19:50;;;;;;;5.55;1.52;;;;;;;7.32;88.52;100014.53;5074018;28;20473;-81
2022/11/06 04:22:36;;;;;;;4.40;1.10;;;;;;;7.40;88.10;99999.44;5074087;28;20434;-80
2022/11/06 04:28:28;;;;;;;4.28;1.98;;;;;;;7.29;88.87;99998.13;5074027;28;20039;-80
2022/11/06 04:30:56;;;;;;;4.40;0.90;;;;;;;7.33;88.59;100010.72;5073923;28;20032;-80
2022/11/06 04:33:33;;;;;;;2.97;1.02;;;;;;;7.33;88.52;100005.28;5073849;28;20029;-80
2022/11/06 04:36:26;;;;;;;5.57;1.10;;;;;;;7.29;89.00;99998.91;5073687;28;20466;-80
2022/11/06 04:39:04;;;;;;;4.30;1.20;;;;;;;7.35;88.74;99994.13;5055724;28;20013;-80
2022/11/06 04:41:39;;;;;;;7.00;1.20;;;;;;;7.36;88.64;99983.00;5073645;28;20036;-81
2022/11/06 04:44:22;;;;;;;3.08;1.50;;;;;;;7.38;88.64;99977.25;5073605;28;20036;-79
2022/11/06 04:46:59;;;;;;;3.72;1.17;;;;;;;7.39;88.39;99970.72;5073295;28;20020;-79
2022/11/06 04:49:28;;;;;;;6.25;1.35;;;;;;;7.44;88.28;99974.09;5072935;28;20089;-78
2022/11/06 04:51:54;;;;;;;1.90;0.93;;;;;;;7.52;87.92;99973.28;5073328;28;20059;-81
2022/11/06 04:54:20;;;;;;;2.75;1.02;;;;;;;7.45;88.49;99975.69;5073517;28;20473;-78
2022/11/06 04:56:45;;;;;;;2.67;0.85;;;;;;;7.45;88.46;99964.06;5073307;28;20032;-80
2022/11/06 04:59:16;;;;;;;3.65;0.93;;;;;;;7.44;88.64;99965.97;5073591;28;20024;-79
2022/11/06 05:01:44;;;;;;;3.17;1.00;;;;;;;7.42;88.49;99970.91;5073617;28;20028;-79
2022/11/06 05:04:10;;;;;;;4.93;0.93;;;;;;;7.57;88.20;99966.16;5073408;28;20029;-78
2022/11/06 05:06:35;;;;;;;4.20;1.20;;;;;;;7.63;87.82;99954.03;5054799;28;20035;-78
2022/11/06 05:09:01;;;;;;;3.58;0.90;;;;;;;7.52;88.27;99942.69;5053118;28;20020;-79
2022/11/06 05:11:26;;;;;;;6.38;1.02;;;;;;;7.54;88.09;99940.47;5035341;28;20116;-79
2022/11/06 05:13:52;;;;;;;3.17;0.90;;;;;;;7.54;88.27;99940.47;5053106;28;20048;-80
2022/11/06 05:16:17;;;;;;;3.13;1.23;;;;;;;7.55;88.41;99928.50;5053424;28;20032;-80
2022/11/06 05:18:42;;;;;;;2.70;0.93;;;;;;;7.61;88.29;99923.75;5053222;28;20036;-79
2022/11/06 05:23:52;;;;;;;2.45;1.02;;;;;;;7.61;88.42;99918.31;5053038;28;20055;-80
2022/11/06 05:26:18;;;;;;;4.60;1.00;;;;;;;7.69;88.17;99921.00;5053116;28;20541;-80
2022/11/06 05:28:43;;;;;;;1.70;0.77;;;;;;;7.65;88.54;99919.28;5053323;28;20024;-81
2022/11/06 05:31:08;;;;;;;4.80;1.53;;;;;;;7.70;88.48;99924.50;5035367;28;20831;-80
2022/11/06 05:33:34;;;;;;;3.80;0.70;;;;;;;7.61;88.82;99919.13;5052926;28;20079;-80
2022/11/06 05:36:04;;;;;;;2.47;0.82;;;;;;;7.68;88.55;99907.78;5053147;28;20053;-79
2022/11/06 05:38:30;;;;;;;3.15;1.60;;;;;;;7.80;88.16;99913.38;5052334;28;20378;-80
2022/11/06 05:40:56;;;;;;;1.80;0.85;;;;;;;7.82;87.94;99913.84;5052788;28;20024;-80
2022/11/06 05:43:21;;;;;;;3.90;1.20;;;;;;;7.84;87.95;99911.59;5052454;28;20075;-79
2022/11/06 05:45:46;;;;;;;7.10;1.30;;;;;;;7.88;87.91;99906.31;5034750;28;20665;-79
2022/11/06 05:48:12;;;;;;;3.03;1.27;;;;;;;7.85;87.97;99913.19;5034611;28;20036;-79
2022/11/06 05:50:37;;;;;;;2.03;0.70;;;;;;;7.93;87.93;99904.25;5052836;28;20338;-76
2022/11/06 05:53:03;;;;;;;3.97;0.80;;;;;;;7.88;87.73;99904.41;5052656;28;20609;-78
2022/11/06 05:55:28;;;;;;;2.13;0.68;;;;;;;7.90;87.65;99898.69;5052465;28;20095;-78
2022/11/06 05:57:54;;;;;;;5.30;1.07;;;;;;;7.99;87.59;99894.81;5034316;28;20090;-76
2022/11/06 06:00:19;;;;;;;2.60;0.90;;;;;;;7.79;88.29;99887.38;5052522;28;20033;-76
2022/11/06 06:02:45;;;;;;;2.83;0.88;;;;;;;7.78;88.29;99888.50;5052327;28;20108;-78
2022/11/06 06:05:11;;;;;;;2.13;0.90;;;;;;;7.82;88.18;99881.31;5052540;28;20040;-77
2022/11/06 06:07:36;;;;;;;1.65;0.75;;;;;;;7.84;88.10;99877.16;5034482;28;20045;-76
2022/11/06 06:10:02;;;;;;;1.63;0.60;;;;;;;7.78;88.30;99858.69;5052295;28;20036;-78
2022/11/06 06:12:27;;;;;;;2.55;0.82;;;;;;;7.72;88.65;99865.38;5017853;28;20640;-77
2022/11/06 06:14:53;;;;;;;2.75;1.13;;;;;;;7.77;88.54;99867.94;5034346;28;20029;-77
2022/11/06 06:17:19;;;;;;;5.65;1.38;;;;;;;7.79;88.21;99890.09;5052452;28;20080;-77
2022/11/06 06:19:45;;;;;;;1.83;0.68;;;;;;;7.76;88.45;99871.75;5052402;28;20441;-78
2022/11/06 06:22:11;;;;;;;3.05;1.33;;;;;;;7.81;88.21;99866.97;5052280;28;20025;-78
2022/11/06 06:24:37;;;;;;;4.30;1.17;;;;;;;7.88;87.96;99880.00;5052083;28;20501;-78
2022/11/06 06:27:03;;;;;;;2.95;0.80;;;;;;;7.80;88.05;99873.50;5055930;28;20037;-78
2022/11/06 06:29:28;;;;;;;2.83;0.90;;;;;;;7.77;88.42;99862.50;5056085;28;20025;-78
2022/11/06 06:31:53;;;;;;;4.47;1.10;;;;;;;7.76;88.42;99864.44;5055966;28;20401;-78
2022/11/06 06:34:21;;;;;;;5.38;0.90;;;;;;;7.65;89.08;99865.06;5056032;28;20347;-79
2022/11/06 06:36:53;;;;;;;4.05;0.80;;;;;;;7.69;88.78;99866.00;5056084;28;20025;-78
2022/11/06 06:39:19;;;;;;;2.78;0.90;;;;;;;7.87;88.06;99859.44;5037921;28;20550;-77
2022/11/06 06:41:48;;;;;;;4.07;1.00;;;;;;;7.85;88.16;99877.94;5055968;28;20107;-77
2022/11/06 06:44:14;;;;;;;2.83;0.90;;;;;;;7.85;88.03;99861.69;5037946;28;20035;-77
2022/11/06 06:46:40;;;;;;;2.90;0.73;;;;;;;7.78;88.55;99861.38;5037829;28;20024;-78
2022/11/06 06:49:06;;;;;;;3.72;0.90;;;;;;;7.82;88.60;99870.47;5037499;28;20087;-77
2022/11/06 06:51:31;;;;;;;2.53;1.00;;;;;;;7.84;88.42;99877.16;5055567;28;20029;-77
2022/11/06 06:53:56;;;;;;;2.73;1.10;;;;;;;7.88;88.34;99877.28;5055508;28;20042;-77
2022/11/06 06:56:22;;;;;;;4.30;0.97;;;;;;;7.93;88.15;99889.91;5037490;28;20470;-76
2022/11/06 06:58:47;;;;;;;2.58;1.05;;;;;;;7.97;87.56;99872.66;5055510;28;20729;-77
2022/11/06 07:01:14;;;;;;;7.70;1.05;;;;;;;7.87;88.24;99886.53;5055469;28;20451;-76
2022/11/06 07:03:39;;;;;;;4.35;1.77;;;;;;;8.01;87.59;99881.75;5055442;28;20155;-75
2022/11/06 07:06:05;;;;;;;5.23;1.47;;;;;;;7.88;87.92;99880.00;5055413;28;20112;-78
2022/11/06 07:08:33;;;;;;;5.30;1.10;;;;;;;7.83;88.51;99880.97;5054739;28;20287;-77
2022/11/06 07:11:03;;;;;;;2.72;1.00;;;;;;;7.99;87.88;99885.91;5055509;28;20029;-77
2022/11/06 07:13:28;;;;;;;5.32;1.20;;;;;;;7.96;87.86;99875.69;5055235;28;20045;-78
2022/11/06 07:15:53;;;;;;;3.47;0.80;;;;;;;7.96;87.88;99870.28;5037265;28;20070;-77
2022/11/06 07:18:19;;;;;;;1.97;0.60;;;;;;;8.04;87.46;99878.38;5055494;28;20740;-76
2022/11/06 07:20:44;;;;;;;4.90;1.10;;;;;;;7.99;87.81;99875.84;5055307;28;20159;-76
2022/11/06 07:23:10;;;;;;;6.97;1.90;;;;;;;7.96;87.82;99881.13;5055006;28;20071;-77
2022/11/06 07:25:35;;;;;;;2.93;0.80;;;;;;;7.98;87.89;99895.16;5055190;28;20267;-77
2022/11/06 07:28:05;;;;;;;4.22;0.88;;;;;;;8.01;87.67;99889.88;5037239;28;20025;-77
2022/11/06 07:30:32;;;;;;;7.47;1.20;;;;;;;8.11;87.28;99884.13;5037069;28;20021;-77
2022/11/06 07:33:02;;;;;;;2.58;0.90;;;;;;;8.14;87.21;99891.59;5054965;28;20094;-77
2022/11/06 07:35:28;;;;;;;8.20;1.77;;;;;;;8.12;87.09;99890.34;5054875;28;20040;-77
2022/11/06 07:37:53;;;;;;;3.38;1.15;;;;;;;8.17;87.35;99897.50;5054795;28;20088;-76
2022/11/06 07:40:19;;;;;;;3.53;0.90;;;;;;;8.13;87.03;99900.84;5055225;28;20100;-76
2022/11/06 07:42:44;;;;;;;3.43;0.80;;;;;;;8.33;86.17;99899.34;5054975;28;20031;-77
2022/11/06 07:45:10;;;;;;;2.70;0.75;;;;;;;8.40;86.21;99893.47;5054362;28;20040;-77
2022/11/06 07:47:35;;;;;;;2.50;1.00;;;;;;;8.56;85.61;99891.78;5054533;28;20428;-77
2022/11/06 07:50:00;;;;;;;4.65;0.70;;;;;;;8.54;85.49;99885.09;5054438;28;20047;-77
2022/11/06 07:52:26;;;;;;;2.38;0.95;;;;;;;8.48;85.68;99881.78;5037041;28;20044;-77
2022/11/06 07:54:51;;;;;;;1.50;0.60;;;;;;;8.55;85.68;99882.03;5054296;28;20021;-77
2022/11/06 07:57:17;;;;;;;2.55;0.90;;;;;;;8.58;85.39;99876.00;5054705;28;20767;-78
2022/11/06 07:59:42;;;;;;;6.55;0.77;;;;;;;8.60;85.07;99864.81;5054260;28;20367;-76
2022/11/06 08:02:12;;;;;;;3.53;0.95;;;;;;;8.54;85.50;99875.03;5054272;28;20107;-75
2022/11/06 08:04:38;;;;;;;5.35;0.88;;;;;;;8.60;85.60;99870.22;5036434;28;20052;-76
2022/11/06 08:07:03;;;;;;;;;;;;;;;8.76;85.11;99886.75;5054460;28;20496;-77
2022/11/06 08:09:28;;;;;;;5.30;1.10;;;;;;;8.76;84.82;99870.47;5053847;28;19919;-77
2022/11/06 08:11:54;;;;;;;11.50;2.05;;;;;;;8.81;84.66;99883.84;5036434;28;20024;-78
2022/11/06 08:14:19;;;;;;;1.87;0.70;;;;;;;8.89;83.89;99869.41;5054378;28;20033;-77
2022/11/06 08:16:44;;;;;;;2.15;0.80;;;;;;;8.88;83.79;99870.53;5053761;28;20035;-77
2022/11/06 08:19:10;;;;;;;4.30;1.30;;;;;;;8.86;84.54;99872.78;5036095;28;20029;-77
2022/11/06 08:21:35;;;;;;;4.60;0.83;;;;;;;8.93;84.03;99875.78;5053732;28;20768;-77
2022/11/06 08:24:00;;;;;;;4.43;1.03;;;;;;;8.99;83.89;99869.03;5053874;28;20059;-77
2022/11/06 08:26:26;;;;;;;3.20;0.80;;;;;;;8.97;83.44;99874.00;5053689;28;20109;-76
2022/11/06 08:28:53;;;;;;;2.60;0.85;;;;;;;8.98;83.74;99864.72;5035943;28;20653;-77
2022/11/06 08:31:19;;;;;;;2.85;0.75;;;;;;;9.12;83.17;99865.28;5035789;28;20108;-76
2022/11/06 08:33:45;;;;;;;2.33;0.93;;;;;;;9.15;82.98;99864.63;5035861;28;20023;-77
2022/11/06 08:36:10;;;;;;;4.95;1.20;;;;;;;9.13;83.08;99869.59;5035846;28;20079;-77
2022/11/06 08:38:36;;;;;;;2.20;0.70;;;;;;;9.23;82.60;99865.66;5053343;28;20485;-76
2022/11/06 08:41:14;;;;;;;3.03;0.93;;;;;;;9.17;83.12;99856.13;5053576;28;20044;-77
2022/11/06 08:43:39;;;;;;;4.63;1.23;;;;;;;9.34;82.33;99854.06;5053694;28;20033;-78
2022/11/06 08:46:07;;;;;;;3.35;1.00;;;;;;;9.30;82.50;99850.44;5053942;28;20156;-78
2022/11/06 08:48:33;;;;;;;3.55;1.00;;;;;;;9.31;82.01;99843.88;5052837;28;20033;-79
2022/11/06 08:50:59;;;;;;;4.78;1.23;;;;;;;9.38;82.29;99853.41;5053436;28;20167;-78
2022/11/06 08:53:24;;;;;;;3.42;1.20;;;;;;;9.40;82.08;99829.41;5053041;28;20097;-78
2022/11/06 08:55:50;;;;;;;5.90;1.20;;;;;;;9.49;82.20;99832.84;5053324;28;20441;-78
2022/11/06 08:58:15;;;;;;;3.08;0.80;;;;;;;9.53;81.93;99826.41;5035343;28;20029;-78
2022/11/06 09:00:41;;;;;;;2.20;0.80;;;;;;;9.64;81.37;99845.81;5053580;28;20017;-78
2022/11/06 09:03:11;;;;;;;2.17;0.93;;;;;;;9.55;81.62;99831.50;5053296;28;20029;-78
2022/11/06 09:05:39;;;;;;;2.63;1.10;;;;;;;9.59;81.38;99824.28;5053514;28;20104;-78
2022/11/06 09:08:05;;;;;;;2.38;0.82;;;;;;;9.44;81.30;99831.13;5065606;28;20044;-78
2022/11/06 09:10:30;;;;;;;2.57;1.10;;;;;;;9.47;81.67;99829.66;5073270;28;20029;-79
2022/11/06 09:12:58;;;;;;;2.00;0.70;;;;;;;9.62;81.24;99820.91;5073097;28;20761;-79
2022/11/06 09:15:23;;;;;;;4.07;1.50;;;;;;;9.56;81.74;99817.56;5072997;28;20115;-78
2022/11/06 09:17:51;;;;;;;2.13;0.80;;;;;;;9.45;82.17;99808.25;5073436;28;20100;-80
2022/11/06 09:20:18;;;;;;;2.28;0.95;;;;;;;9.47;81.82;99814.16;5073142;28;20028;-78
2022/11/06 09:22:46;;;;;;;2.47;0.82;;;;;;;9.55;81.76;99805.09;5073133;28;20043;-78
2022/11/06 09:25:12;;;;;;;2.17;0.90;;;;;;;9.48;81.81;99804.88;5055396;28;20032;-79
2022/11/06 09:27:49;;;;;;;1.85;0.68;;;;;;;9.38;82.37;99813.44;5073145;28;20055;-78
2022/11/06 09:30:17;;;;;;;2.40;0.70;;;;;;;9.42;82.37;99805.44;5073056;28;20032;-78
2022/11/06 09:32:47;;;;;;;5.22;0.93;;;;;;;9.40;82.29;99797.59;5072856;28;20024;-76
2022/11/06 09:35:13;;;;;;;3.25;1.02;;;;;;;9.44;82.03;99790.38;5054847;28;20454;-78
2022/11/06 09:37:39;;;;;;;2.90;0.80;;;;;;;9.48;82.15;99780.41;5072515;28;20051;-79
2022/11/06 09:40:05;;;;;;;3.55;1.00;;;;;;;9.58;81.77;99787.38;5037952;28;20039;-76
2022/11/06 09:42:41;;;;;;;2.38;0.88;;;;;;;9.62;81.72;99780.91;5072431;28;20028;-77
2022/11/06 09:45:16;;;;;;;4.30;0.83;;;;;;;9.57;81.56;99764.81;5054559;28;20021;-77
2022/11/06 09:47:47;;;;;;;5.05;1.05;;;;;;;9.59;81.80;99764.50;5054546;28;20028;-77
2022/11/06 09:50:18;;;;;;;5.22;1.42;;;;;;;9.76;81.22;99761.56;5072802;28;20059;-77
2022/11/06 09:52:49;;;;;;;3.38;1.02;;;;;;;9.70;81.29;99765.63;5072414;28;20090;-77
2022/11/06 09:55:20;;;;;;;3.50;1.33;;;;;;;9.74;81.02;99769.28;5054884;28;20029;-77
2022/11/06 09:57:54;;;;;;;10.48;1.00;;;;;;;9.84;81.25;99759.88;5072524;28;20474;-77
2022/11/06 10:00:20;;;;;;;3.30;0.90;;;;;;;9.97;80.58;99766.13;5056628;28;20048;-76
2022/11/06 10:03:13;;;;;;;4.07;1.00;;;;;;;10.02;80.53;99747.66;5058652;28;20067;-77
2022/11/06 10:05:41;;;;;;;4.40;1.10;;;;;;;10.10;79.81;99754.13;5076659;28;20051;-77
2022/11/06 10:08:16;;;;;;;4.05;1.20;;;;;;;10.28;79.25;99763.66;5063257;28;20057;-76
2022/11/06 10:11:05;;;;;;;9.88;1.70;;;;;;;10.08;79.46;99751.75;5038119;28;20071;-75
2022/11/06 10:13:41;;;;;;;3.10;1.15;;;;;;;10.15;79.45;99767.50;5056412;28;20028;-77
2022/11/06 10:16:47;;;;;;;2.03;1.00;;;;;;;10.15;79.18;99735.63;5056303;28;20025;-77
2022/11/06 10:19:39;;;;;;;4.07;0.98;;;;;;;10.15;79.96;99745.72;5056045;28;20037;-78
2022/11/06 10:22:10;;;;;;;3.92;1.02;;;;;;;10.21;79.70;99739.75;5055955;28;20115;-79
2022/11/06 10:25:03;;;;;;;1.73;0.93;;;;;;;10.34;79.07;99748.69;5037964;28;20041;-78
2022/11/06 10:27:40;;;;;;;4.28;1.08;;;;;;;10.11;79.55;99728.50;5056232;28;20025;-77
2022/11/06 10:30:10;;;;;;;2.40;0.93;;;;;;;10.20;79.59;99724.53;5038003;28;20108;-77
2022/11/06 10:33:19;;;;;;;4.00;1.25;;;;;;;10.19;79.13;99724.88;5056012;28;20033;-77
2022/11/06 10:36:11;;;;;;;2.67;0.82;;;;;;;10.14;79.46;99723.16;5056230;28;20027;-77
2022/11/06 10:38:40;;;;;;;6.05;1.20;;;;;;;10.49;78.67;99728.94;5038159;28;20029;-78
2022/11/06 10:41:18;;;;;;;1.83;0.82;;;;;;;10.48;78.43;99711.03;5055782;28;20044;-78
2022/11/06 10:43:51;;;;;;;1.80;0.60;;;;;;;10.44;77.68;99718.28;5055713;28;20037;-77
2022/11/06 10:46:39;;;;;;;2.67;0.85;;;;;;;10.39;77.94;99720.44;5037991;28;20040;-78
2022/11/06 10:49:14;;;;;;;6.72;1.65;;;;;;;10.40;77.66;99709.22;5055569;28;20021;-77
2022/11/06 10:52:13;;;;;;;1.98;0.80;;;;;;;10.35;77.82;99706.72;5055880;28;20044;-78
2022/11/06 10:55:13;;;;;;;2.78;0.73;;;;;;;10.33;77.81;99705.50;5022168;28;20037;-78
2022/11/06 10:57:45;;;;;;;2.20;0.80;;;;;;;10.37;77.37;99695.50;5029294;28;20064;-78
2022/11/06 11:00:14;;;;;;;3.42;1.38;;;;;;;10.36;77.56;99697.44;5037672;28;20021;-78
2022/11/06 11:02:45;;;;;;;2.95;0.90;;;;;;;10.40;77.43;99698.31;5055558;28;20409;-78
2022/11/06 11:05:17;;;;;;;2.67;0.80;;;;;;;10.58;76.07;99698.06;5055193;28;20025;-78
2022/11/06 11:07:45;;;;;;;2.17;0.82;;;;;;;10.70;76.18;99689.84;5055388;28;20068;-78
2022/11/06 11:10:40;;;;;;;2.33;1.00;;;;;;;10.70;75.82;99689.84;5055405;28;20017;-78
2022/11/06 11:13:05;;;;;;;1.50;0.73;;;;;;;10.73;75.43;99684.50;5038052;28;20029;-78
2022/11/06 11:15:36;;;;;;;3.17;1.07;;;;;;;10.62;75.16;99667.09;5055261;28;20028;-77
2022/11/06 11:18:10;;;;;;;4.28;1.02;;;;;;;10.60;75.66;99674.03;5055066;28;20306;-79
2022/11/06 11:20:40;;;;;;;3.78;1.45;;;;;;;10.64;75.35;99658.59;5055518;28;20470;-79
2022/11/06 11:23:06;;;;;;;2.25;0.80;;;;;;;10.51;75.09;99658.59;5055298;28;20024;-77
2022/11/06 11:25:32;;;;;;;3.35;0.80;;;;;;;10.54;75.92;99643.50;5055323;28;20478;-78
2022/11/06 11:27:58;;;;;;;4.18;1.10;;;;;;;10.43;76.33;99653.31;5037191;28;20119;-77
2022/11/06 11:30:25;;;;;;;5.30;1.00;;;;;;;10.37;76.31;99639.16;5036891;28;20039;-76
2022/11/06 11:32:56;;;;;;;2.35;0.75;;;;;;;10.31;76.05;99645.97;5036763;28;20082;-76
2022/11/06 11:35:27;;;;;;;5.53;1.05;;;;;;;10.31;76.40;99637.03;5054940;28;20028;-76
2022/11/06 11:38:05;;;;;;;2.22;0.82;;;;;;;10.36;75.75;99631.31;5054915;28;20021;-79
2022/11/06 11:40:37;;;;;;;3.78;1.00;;;;;;;10.40;76.23;99638.44;5054900;28;20016;-77
2022/11/06 11:43:23;;;;;;;3.05;0.75;;;;;;;10.41;75.71;99620.19;5054783;28;20043;-77
2022/11/06 11:46:06;;;;;;;1.80;0.80;;;;;;;10.55;74.96;99618.66;5054508;28;20036;-76
2022/11/06 11:48:42;;;;;;;7.03;1.42;;;;;;;10.47;75.06;99610.66;5054903;28;20032;-78
2022/11/06 11:51:25;;;;;;;5.43;1.88;;;;;;;10.44;74.77;99608.63;5036524;28;20028;-78
2022/11/06 11:53:53;;;;;;;2.88;1.20;;;;;;;10.61;74.92;99604.81;5036662;28;20025;-78
2022/11/06 11:56:21;;;;;;;6.18;1.20;;;;;;;10.49;74.21;99601.00;5054286;28;20029;-77
2022/11/06 11:58:53;;;;;;;2.35;0.93;;;;;;;10.43;74.37;99599.69;5036512;28;20155;-78
2022/11/06 12:01:31;;;;;;;3.08;1.30;;;;;;;10.42;74.34;99597.31;5053996;28;20025;-77
2022/11/06 12:03:56;;;;;;;1.48;0.73;;;;;;;10.44;74.49;99592.31;5054329;28;20175;-77
2022/11/06 12:06:22;;;;;;;2.17;0.80;;;;;;;10.57;73.31;99582.94;5054448;28;20490;-77
2022/11/06 12:08:51;;;;;;;2.85;0.95;;;;;;;10.60;73.04;99576.81;5072374;28;20271;-79